»·PEaware :: DAL1533 KSAN-KPHX

DAL1533 :: KSAN-KPHX

FLIGHT INFORMATION

Flight Status: Arrived
Operator:
Delta Air Lines
More flights by this operator :: More flights under this callsign
Pilot: Keith A. (7560)
Aircraft: BOEING 737-800
(B738)
More flights by this aircraft type
Origin: KSAN San Diego Intl-Lindbergh
United States
Destination: KPHX Phoenix Sky Harbor Intl
United States
More flights between these airports :: More routes between these airports
Route: +ZZOOO2 IPL BZA HOGGZ HYDRR1
File this flight plan on PilotEdge
Remarks:
Altitude:
(Current/Filed)
26,000ft
Speed:
(Current/Filed)
400kts
Departed: 27-Jul-20 06:27 PM
Arrived: 27-Jul-20 07:19 PM
Distance/Time
Traveled:
264nm/0:52
Distance/Time
To Go:
Arrived

Flight Plot

Page will automatically refresh every two minutes.


Map Options




Map Legend


Flown Route
Filed Route
Departure Airport
Arrival Airport
Navaid (VOR, NDB)
Fix

Horizontal Profiles

Position Reports

Time Latitude Longitude Heading Altitude Ground
Speed
27-Jul-20 18:03 32.733375 -117.201832 84 25ft 0kts
27-Jul-20 18:04 32.733375 -117.201832 84 25ft 0kts
27-Jul-20 18:05 32.733375 -117.201832 84 25ft 0kts
27-Jul-20 18:06 32.733375 -117.201832 84 25ft 0kts
27-Jul-20 18:07 32.733375 -117.201832 84 25ft 0kts
27-Jul-20 18:08 32.733375 -117.201832 84 25ft 0kts
27-Jul-20 18:09 32.733375 -117.201832 84 25ft 0kts
27-Jul-20 18:10 32.733375 -117.201832 84 25ft 0kts
27-Jul-20 18:11 32.733375 -117.201832 84 25ft 0kts
27-Jul-20 18:12 32.733375 -117.201832 84 25ft 0kts
27-Jul-20 18:13 32.733369 -117.201897 84 25ft 4kts
27-Jul-20 18:14 32.733133 -117.202587 19 25ft 1kts
27-Jul-20 18:15 32.733182 -117.202639 353 25ft 4kts
27-Jul-20 18:16 32.734239 -117.202671 12 25ft 0kts
27-Jul-20 18:17 32.735341 -117.202188 51 25ft 9kts
27-Jul-20 18:18 32.734458 -117.197587 106 25ft 14kts
27-Jul-20 18:19 32.733346 -117.193016 105 25ft 14kts
27-Jul-20 18:20 32.731910 -117.187122 109 25ft 17kts
27-Jul-20 18:21 32.730543 -117.181478 106 25ft 14kts
27-Jul-20 18:22 32.729539 -117.177012 85 25ft 0kts
27-Jul-20 18:23 32.729539 -117.177012 85 25ft 0kts
27-Jul-20 18:24 32.729539 -117.177012 85 25ft 0kts
27-Jul-20 18:25 32.730676 -117.177747 285 25ft 17kts
27-Jul-20 18:26 32.739823 -117.215711 286 937ft 179kts
27-Jul-20 18:27 32.752604 -117.273138 281 3717ft 189kts
27-Jul-20 18:28 32.718576 -117.332940 193 6198ft 273kts
27-Jul-20 18:29 32.660535 -117.277270 124 10596ft 334kts
27-Jul-20 18:30 32.624829 -117.172741 96 14951ft 370kts
27-Jul-20 18:31 32.613866 -117.048728 97 18995ft 392kts
27-Jul-20 18:32 32.601889 -116.916787 94 22500ft 413kts
27-Jul-20 18:33 32.628332 -116.782639 79 23770ft 423kts
27-Jul-20 18:34 32.643214 -116.640894 85 26446ft 445kts
27-Jul-20 18:35 32.657913 -116.489498 85 27014ft 465kts
27-Jul-20 18:36 32.672601 -116.336207 85 26975ft 466kts
27-Jul-20 18:37 32.687106 -116.182799 85 26831ft 469kts
27-Jul-20 18:38 32.701523 -116.028313 85 26790ft 469kts
27-Jul-20 18:39 32.715759 -115.874552 85 26790ft 469kts
27-Jul-20 18:40 32.729840 -115.720375 85 26791ft 469kts
27-Jul-20 18:41 32.743759 -115.565857 85 26773ft 470kts
27-Jul-20 18:42 32.751251 -115.411505 90 26767ft 468kts
27-Jul-20 18:43 32.754879 -115.256906 90 26774ft 468kts
27-Jul-20 18:44 32.758300 -115.102165 90 26781ft 469kts
27-Jul-20 18:45 32.761556 -114.947111 89 26781ft 470kts
27-Jul-20 18:46 32.764643 -114.791625 89 26781ft 470kts
27-Jul-20 18:47 32.767515 -114.636352 89 26786ft 470kts
27-Jul-20 18:48 32.769842 -114.481546 90 26796ft 470kts
27-Jul-20 18:49 32.771898 -114.325880 90 26797ft 470kts
27-Jul-20 18:50 32.773755 -114.170221 90 26798ft 470kts
27-Jul-20 18:51 32.780844 -114.015339 83 26798ft 472kts
27-Jul-20 18:52 32.797566 -113.863030 83 25751ft 447kts
27-Jul-20 18:53 32.813355 -113.719341 80 24752ft 443kts
27-Jul-20 18:54 32.880512 -113.602480 48 24767ft 437kts
27-Jul-20 18:55 32.960600 -113.494503 48 24810ft 443kts
27-Jul-20 18:56 33.042943 -113.383278 48 22671ft 427kts
27-Jul-20 18:57 33.118381 -113.281293 49 19913ft 408kts
27-Jul-20 18:58 33.191515 -113.182186 49 18049ft 390kts
27-Jul-20 18:59 33.260040 -113.088090 57 16579ft 366kts
27-Jul-20 19:00 33.276522 -112.974077 89 15326ft 341kts
27-Jul-20 19:01 33.279483 -112.862307 89 13548ft 330kts
27-Jul-20 19:02 33.286606 -112.756945 84 11389ft 309kts
27-Jul-20 19:03 33.296010 -112.656828 84 11318ft 306kts
27-Jul-20 19:04 33.305400 -112.555986 84 11308ft 306kts
27-Jul-20 19:05 33.314722 -112.455013 84 11018ft 304kts
27-Jul-20 19:06 33.323918 -112.354483 84 11009ft 304kts
27-Jul-20 19:07 33.333130 -112.253536 84 10127ft 301kts
27-Jul-20 19:08 33.342094 -112.154395 84 8918ft 296kts
27-Jul-20 19:09 33.347176 -112.056726 91 8320ft 284kts
27-Jul-20 19:10 33.346054 -111.968416 91 7112ft 264kts
27-Jul-20 19:11 33.369067 -111.889542 47 6189ft 260kts
27-Jul-20 19:12 33.391220 -111.817625 100 4579ft 239kts
27-Jul-20 19:13 33.402188 -111.750039 18 4042ft 212kts
27-Jul-20 19:14 33.428827 -111.797192 269 4058ft 208kts
27-Jul-20 19:15 33.429662 -111.866668 269 3765ft 213kts
27-Jul-20 19:16 33.428891 -111.926279 267 2501ft 164kts
27-Jul-20 19:17 33.428838 -111.978851 268 1534ft 150kts
27-Jul-20 19:18 33.428899 -112.020336 281 1117ft 39kts
27-Jul-20 19:19 33.429964 -112.020425 89 1117ft 17kts
27-Jul-20 19:20 33.429946 -112.013524 90 1123ft 23kts
27-Jul-20 19:21 33.431424 -112.008942 359 1127ft 2kts
27-Jul-20 19:22 33.432727 -112.007698 339 1129ft 10kts

Navigation Log

Ident Type
Flight plan parsing failed, navigation log unavailable